Latest Weather Observations for Hillarys Point Boat Harbour

IDW60801

Issued at 11:32 pm WST Saturday 6 February 2016 (issued every 30 minutes, with the page automatically refreshed every 10 minutes)

About weather observations | Map of weather stations | Latest weather observations for WA | Other Formats
Station Details ID: 009265 Name: HILLARYS BOAT HARBOUR NTC AWS Lat: -31.83 Lon: 115.74 Height: 0.0 m
Data from the previous 72 hours. | See also: Recent months for locations in Western Australia
Date/Time
WST
Temp
°C
App
Temp
°C
Dew
Point
Rel
Hum
%
Delta-T
°C
Wind Press
QNH
hPa
Press
MSL
hPa
Rain
since 9 am
mm
Dir
 
Spd
km/h
Gust
km/h
Spd
kts
Gust
kts
06/11:30pm 23.2 - - - - S 6 13 3 7 1014.1 1014.1 -
06/11:00pm 23.2 - - - - SSW 7 17 4 9 1014.4 1014.4 -
06/10:30pm 23.2 - - - - SSW 7 15 4 8 1014.4 1014.4 -
06/10:00pm 23.1 - - - - SSW 6 17 3 9 1014.5 1014.5 -
06/09:30pm 23.3 - - - - SSW 7 17 4 9 1014.6 1014.6 -
06/09:00pm 23.4 - - - - S 7 17 4 9 1014.4 1014.4 -
06/08:30pm 23.3 - - - - SSW 7 19 4 10 1014.3 1014.3 -
06/08:00pm 23.3 - - - - SSW 9 20 5 11 1014.0 1014.0 -
06/07:30pm 23.4 - - - - SSW 9 20 5 11 1013.9 1013.9 -
06/07:00pm 23.4 - - - - SSW 9 20 5 11 1013.6 1013.6 -
06/06:30pm 23.6 - - - - SSW 9 24 5 13 1013.4 1013.4 -
06/06:00pm 23.8 - - - - SSW 11 22 6 12 1013.1 1013.0 -
06/05:30pm 24.1 - - - - SSW 9 22 5 12 1013.0 1012.9 -
06/05:00pm 24.2 - - - - SSW 9 22 5 12 1012.9 1012.8 -
06/04:30pm 24.3 - - - - SSW 11 20 6 11 1012.9 1012.8 -
06/04:00pm 24.0 - - - - SSW 15 30 8 16 1013.2 1013.1 -
06/03:30pm 23.9 - - - - SSW 15 30 8 16 1013.4 1013.4 -
06/03:00pm 23.9 - - - - SSW 15 28 8 15 1013.7 1013.7 -
06/02:30pm 23.7 - - - - SSW 15 26 8 14 1013.8 1013.8 -
06/02:00pm 23.6 - - - - SSW 15 28 8 15 1013.9 1013.9 -
06/01:30pm 23.6 - - - - SSW 15 28 8 15 1014.0 1014.0 -
06/01:00pm 23.5 - - - - SSW 15 28 8 15 1014.3 1014.3 -
06/12:30pm 23.6 - - - - SSW 15 26 8 14 1014.5 1014.5 -
06/12:00pm 24.0 - - - - SSW 11 20 6 11 1014.5 1014.5 -
06/11:30am 24.1 - - - - SSW 9 15 5 8 1014.6 1014.6 -
06/11:00am 24.0 - - - - SSW 7 13 4 7 1014.9 1014.9 -
06/10:30am 24.1 - - - - SSW 7 13 4 7 1015.3 1015.3 -
06/10:00am 24.0 - - - - SSW 7 17 4 9 1015.5 1015.5 -
06/09:30am 23.6 - - - - SW 11 20 6 11 1015.2 1015.2 -
06/09:00am 23.8 - - - - SW 7 13 4 7 1015.0 1015.0 -
06/08:30am 24.6 - - - - SSW 2 6 1 3 1014.9 1014.9 -
06/08:00am 23.8 - - - - SSE 6 11 3 6 1015.0 1015.0 -
06/07:30am 23.1 - - - - SSE 6 9 3 5 1014.9 1014.9 -
06/07:00am 22.4 - - - - SSE 6 13 3 7 1014.4 1014.4 -
06/06:30am 22.3 - - - - S 4 11 2 6 1014.3 1014.3 -
06/06:00am 21.8 - - - - SE 2 7 1 4 1013.8 1013.8 -
06/05:30am 22.5 - - - - SSE 7 11 4 6 1013.5 1013.5 -
06/05:00am 22.4 - - - - SSE 6 9 3 5 1013.3 1013.3 -
06/04:30am 22.7 - - - - S 7 13 4 7 1013.2 1013.1 -
06/04:00am 22.8 - - - - S 4 15 2 8 1013.0 1012.9 -
06/03:30am 22.8 - - - - S 6 17 3 9 1013.0 1012.9 -
06/03:00am 22.9 - - - - SSW 6 15 3 8 1012.8 1012.7 -
06/02:30am 23.1 - - - - SSW 2 7 1 4 1012.7 1012.6 -
06/02:00am 22.7 - - - - CALM 0 2 0 1 1012.7 1012.6 -
06/01:30am 23.0 - - - - S 2 4 1 2 1012.8 1012.7 -
06/01:00am 22.8 - - - - S 2 6 1 3 1012.8 1012.7 -
06/12:30am 23.1 - - - - S 2 6 1 3 1013.0 1012.9 -
06/12:00am 23.2 - - - - SSW 4 9 2 5 1013.3 1013.3 -
 
Date/Time
WST
Temp
°C
App
Temp
°C
Dew
Point
Rel
Hum
%
Delta-T
°C
Wind Press
QNH
hPa
Press
MSL
hPa
Rain
since 9 am
mm
Dir
 
Spd
km/h
Gust
km/h
Spd
kts
Gust
kts
05/11:30pm 23.3 - - - - SSW 4 9 2 5 1013.5 1013.5 -
05/11:00pm 23.4 - - - - SSW 6 15 3 8 1013.7 1013.7 -
05/10:30pm 23.2 - - - - SSW 6 11 3 6 1013.8 1013.8 -
05/10:00pm 23.5 - - - - SSW 6 9 3 5 1013.8 1013.8 -
05/09:30pm 23.4 - - - - S 4 11 2 6 1013.8 1013.8 -
05/09:00pm 23.6 - - - - SSW 4 11 2 6 1013.6 1013.6 -
05/08:30pm 23.7 - - - - SSW 6 13 3 7 1013.3 1013.3 -
05/08:00pm 23.5 - - - - S 6 15 3 8 1013.0 1012.9 -
05/07:30pm 23.4 - - - - S 6 15 3 8 1012.9 1012.8 -
05/07:00pm 23.7 - - - - SSW 7 17 4 9 1012.8 1012.7 -
05/06:30pm 24.0 - - - - SSW 6 17 3 9 1012.7 1012.6 -
05/06:00pm 24.4 - - - - SSW 7 17 4 9 1012.5 1012.4 -
05/05:30pm 24.5 - - - - SSW 11 22 6 12 1012.4 1012.3 -
05/05:00pm 24.9 - - - - SSW 6 15 3 8 1012.3 1012.2 -
05/04:30pm 25.4 - - - - SSW 7 19 4 10 1012.3 1012.2 -
05/04:00pm 25.7 - - - - SSW 7 17 4 9 1012.3 1012.2 -
05/03:30pm 26.5 - - - - S 4 11 2 6 1012.4 1012.3 -
05/03:00pm 25.3 - - - - SSW 11 20 6 11 1012.5 1012.4 -
05/02:30pm 25.4 - - - - SSW 13 28 7 15 1012.7 1012.6 -
05/02:00pm 25.2 - - - - SW 20 30 11 16 1012.8 1012.7 -
05/01:30pm 26.3 - - - - WSW 17 20 9 11 1012.8 1012.7 -
05/01:00pm 26.3 - - - - WSW 13 19 7 10 1012.8 1012.7 -
05/12:30pm 26.1 - - - - WSW 13 19 7 10 1013.1 1013.0 -
05/12:00pm 26.4 - - - - WSW 13 17 7 9 1013.4 1013.4 -
05/11:30am 26.1 - - - - WSW 11 15 6 8 1013.6 1013.6 -
05/11:00am 27.9 - - - - WSW 9 13 5 7 1013.9 1013.9 -
05/10:30am 31.5 - - - - NNE 7 13 4 7 1014.2 1014.2 -
05/10:00am 30.8 - - - - NNE 7 15 4 8 1014.3 1014.3 -
05/09:30am 29.9 - - - - NE 9 17 5 9 1014.4 1014.4 -
05/09:00am 29.0 - - - - NE 7 13 4 7 1014.4 1014.4 -
05/08:30am 27.6 - - - - NE 9 17 5 9 1014.5 1014.5 -
05/08:00am 26.3 - - - - NE 6 11 3 6 1014.6 1014.6 -
05/07:30am 24.9 - - - - ENE 4 7 2 4 1014.8 1014.8 -
05/07:00am 23.1 - - - - CALM 0 2 0 1 1014.6 1014.6 -
05/06:30am 21.6 - - - - CALM 0 4 0 2 1014.5 1014.5 -
05/06:00am 20.9 - - - - ESE 2 4 1 2 1014.1 1014.1 -
05/05:30am 21.3 - - - - E 2 4 1 2 1013.8 1013.8 -
05/05:00am 21.5 - - - - S 2 4 1 2 1013.4 1013.4 -
05/04:30am 21.8 - - - - ENE 6 11 3 6 1013.1 1013.0 -
05/04:00am 22.3 - - - - ENE 9 15 5 8 1013.0 1012.9 -
05/03:30am 21.6 - - - - ENE 7 11 4 6 1013.1 1013.0 -
05/03:00am 22.2 - - - - ENE 7 11 4 6 1013.2 1013.1 -
05/02:30am 21.4 - - - - CALM 0 4 0 2 1013.5 1013.5 -
05/02:00am 22.1 - - - - E 2 6 1 3 1013.6 1013.6 -
05/01:30am 22.6 - - - - SSE 2 6 1 3 1013.8 1013.8 -
05/01:00am 23.1 - - - - SSE 4 6 2 3 1014.0 1014.0 -
05/12:30am 23.6 - - - - SSE 6 9 3 5 1014.3 1014.3 -
05/12:00am 23.7 - - - - SSE 4 7 2 4 1014.5 1014.5 -
 
Date/Time
WST
Temp
°C
App
Temp
°C
Dew
Point
Rel
Hum
%
Delta-T
°C
Wind Press
QNH
hPa
Press
MSL
hPa
Rain
since 9 am
mm
Dir
 
Spd
km/h
Gust
km/h
Spd
kts
Gust
kts
04/11:30pm 24.4 - - - - S 4 9 2 5 1014.6 1014.6 -
04/11:00pm 24.5 - - - - S 4 13 2 7 1014.8 1014.8 -
04/10:30pm 24.6 - - - - S 4 9 2 5 1015.1 1015.1 -
04/10:00pm 24.1 - - - - S 4 7 2 4 1015.2 1015.2 -
04/09:30pm 23.4 - - - - S 4 9 2 5 1015.2 1015.2 -
04/09:00pm 23.8 - - - - S 6 11 3 6 1015.1 1015.1 -
04/08:30pm 24.3 - - - - S 6 13 3 7 1015.1 1015.1 -
04/08:00pm 24.3 - - - - S 6 17 3 9 1014.9 1014.9 -
04/07:30pm 24.5 - - - - S 7 19 4 10 1014.6 1014.6 -
04/07:00pm 24.8 - - - - S 7 19 4 10 1014.5 1014.5 -
04/06:30pm 24.9 - - - - S 7 19 4 10 1014.2 1014.2 -
04/06:00pm 25.3 - - - - S 9 24 5 13 1014.0 1014.0 -
04/05:30pm 25.5 - - - - S 7 20 4 11 1013.9 1013.9 -
04/05:00pm 26.0 - - - - S 6 13 3 7 1013.8 1013.8 -
04/04:30pm 26.3 - - - - S 6 13 3 7 1013.9 1013.9 -
04/04:00pm 26.2 - - - - SSW 7 19 4 10 1013.9 1013.9 -
04/03:30pm 26.1 - - - - SSW 11 22 6 12 1013.8 1013.8 -
04/03:00pm 26.2 - - - - SW 13 20 7 11 1014.1 1014.1 -
04/02:30pm 26.4 - - - - SW 17 22 9 12 1014.5 1014.5 -
04/02:00pm 26.4 - - - - SW 17 26 9 14 1015.0 1015.0 -
04/01:30pm 26.7 - - - - SW 17 24 9 13 1015.5 1015.5 -
04/01:00pm 30.6 - - - - S 6 11 3 6 1015.9 1015.9 -
04/12:30pm 30.4 - - - - ENE 9 24 5 13 1016.3 1016.3 -
04/12:00pm 30.3 - - - - ENE 9 24 5 13 1016.7 1016.7 -
04/11:30am 29.6 - - - - NE 11 20 6 11 1017.2 1017.2 -
04/11:00am 28.6 - - - - NE 11 24 6 13 1017.5 1017.5 -
04/10:30am 28.0 - - - - ENE 15 26 8 14 1017.8 1017.8 -
04/10:00am 27.3 - - - - ENE 13 20 7 11 1018.1 1018.1 -
04/09:30am 26.0 - - - - ENE 15 22 8 12 1018.3 1018.3 -
04/09:00am 24.9 - - - - ENE 19 30 10 16 1018.6 1018.6 -
04/08:30am 23.9 - - - - ENE 19 33 10 18 1018.7 1018.7 -
04/08:00am 22.7 - - - - ENE 17 30 9 16 1018.7 1018.7 -
04/07:30am 21.3 - - - - ENE 19 26 10 14 1018.5 1018.5 -
04/07:00am 20.6 - - - - ENE 17 28 9 15 1018.4 1018.4 -
04/06:30am 20.0 - - - - ENE 15 26 8 14 1018.4 1018.4 -
04/06:00am 20.1 - - - - E 13 22 7 12 1018.1 1018.1 -
04/05:30am 20.6 - - - - E 13 24 7 13 1018.0 1018.0 -
04/05:00am 20.9 - - - - E 11 22 6 12 1017.7 1017.7 -
04/04:30am 21.3 - - - - E 13 20 7 11 1017.3 1017.3 -
04/04:00am 21.4 - - - - ENE 11 19 6 10 1017.1 1017.1 -
04/03:30am 22.0 - - - - E 13 20 7 11 1017.3 1017.3 -
04/03:00am 21.8 - - - - E 9 20 5 11 1017.3 1017.3 -
04/02:30am 21.5 - - - - E 9 15 5 8 1017.2 1017.2 -
04/02:00am 21.3 - - - - E 6 13 3 7 1017.2 1017.2 -
04/01:30am 21.0 - - - - E 6 9 3 5 1017.1 1017.1 -
04/01:00am 21.2 - - - - E 6 11 3 6 1017.3 1017.3 -
04/12:30am 21.0 - - - - E 4 7 2 4 1017.4 1017.4 -
04/12:00am 20.6 - - - - E 2 7 1 4 1017.7 1017.7 -

Other Formats:

Comma delimited format used in spreadsheet applications
http://www.bom.gov.au/fwo/IDW60801/IDW60801.95605.axf

JavaScript Object Notation format (JSON) in row-major order
http://www.bom.gov.au/fwo/IDW60801/IDW60801.95605.json